Time;durP1;ratioP1;P1;durP2;ratioP2;P2;SDS_P1;SDS_P2;PMS_P1;PMS_P2;Temp;Humidity;BMP_temperature;BMP_pressure;BME280_temperature;BME280_humidity;BME280_pressure;Samples;Min_cycle;Max_cycle;Signal;HPM_P1;HPM_P2
2022/11/21 00:00:21;;;;;;;0.55;0.55;;;;;;;0.25;100.00;101056.22;10434162;28;20040;-79
2022/11/21 00:05:23;;;;;;;0.38;0.30;;;;;;;0.23;100.00;101047.59;10434433;28;20462;-78
2022/11/21 00:10:25;;;;;;;0.22;0.22;;;;;;;0.11;100.00;101055.22;10434940;28;20044;-79
2022/11/21 00:15:27;;;;;;;1.35;0.98;;;;;;;0.09;100.00;101055.91;10434131;28;20099;-78
2022/11/21 00:20:29;;;;;;;3.25;1.17;;;;;;;0.14;100.00;101054.56;10456639;28;20052;-78
2022/11/21 00:25:31;;;;;;;0.28;0.28;;;;;;;0.11;100.00;101046.75;10434550;28;20052;-78
2022/11/21 00:30:32;;;;;;;0.57;0.57;;;;;;;0.11;100.00;101051.81;10451612;28;20111;-79
2022/11/21 00:35:34;;;;;;;0.63;0.55;;;;;;;0.09;100.00;101051.69;10434326;28;20561;-79
2022/11/21 00:40:35;;;;;;;1.20;1.10;;;;;;;0.00;100.00;101053.59;10433611;28;20476;-78
2022/11/21 00:45:38;;;;;;;0.10;0.10;;;;;;;0.06;100.00;101063.28;10417795;28;20107;-78
2022/11/21 00:50:40;;;;;;;0.70;0.70;;;;;;;-0.01;100.00;101067.91;10416535;28;20060;-78
2022/11/21 00:55:41;;;;;;;0.13;0.13;;;;;;;0.07;100.00;101070.09;10425102;28;20045;-78
2022/11/21 01:00:43;;;;;;;2.58;1.27;;;;;;;0.05;100.00;101085.19;10455554;28;20049;-79
2022/11/21 01:05:44;;;;;;;0.63;0.40;;;;;;;0.06;100.00;101088.59;10425566;28;20049;-79
2022/11/21 01:10:46;;;;;;;1.52;1.40;;;;;;;0.07;100.00;101090.38;10441651;28;20037;-78
2022/11/21 01:15:48;;;;;;;0.00;0.00;;;;;;;0.16;100.00;101101.16;10441649;28;20048;-78
2022/11/21 01:20:50;;;;;;;1.33;1.23;;;;;;;0.09;100.00;101094.75;10433879;28;20412;-78
2022/11/21 01:25:51;;;;;;;0.50;0.32;;;;;;;0.11;100.00;101093.22;10441250;28;20110;-79
2022/11/21 01:30:53;;;;;;;1.10;1.05;;;;;;;0.11;100.00;101105.03;10457984;28;20041;-78
2022/11/21 01:35:54;;;;;;;1.13;0.63;;;;;;;0.35;100.00;101107.50;10458136;28;20106;-78
2022/11/21 01:40:56;;;;;;;0.55;0.50;;;;;;;0.36;100.00;101112.72;10457666;28;20094;-78
2022/11/21 01:46:06;;;;;;;1.02;0.95;;;;;;;0.40;100.00;101106.22;10440041;28;20048;-78
2022/11/21 01:51:15;;;;;;;3.83;1.13;;;;;;;0.15;100.00;101110.41;10440616;28;20460;-78
2022/11/21 01:56:18;;;;;;;2.38;1.40;;;;;;;0.10;100.00;101110.88;10461888;28;20041;-78
2022/11/21 02:01:19;;;;;;;2.47;0.95;;;;;;;0.14;100.00;101108.66;10439106;28;20044;-78
2022/11/21 02:06:23;;;;;;;0.43;0.43;;;;;;;0.20;100.00;101098.06;10457647;28;20049;-79
2022/11/21 02:11:31;;;;;;;0.00;0.00;;;;;;;0.19;100.00;101091.22;10438507;28;20044;-78
2022/11/21 02:16:33;;;;;;;1.35;1.25;;;;;;;0.13;100.00;101100.94;10435826;28;20496;-78
2022/11/21 02:21:43;;;;;;;0.50;0.40;;;;;;;0.04;100.00;101105.38;10439000;28;20095;-78
2022/11/21 02:26:47;;;;;;;0.97;0.63;;;;;;;0.11;100.00;101107.56;10439076;28;20041;-78
2022/11/21 02:31:49;;;;;;;1.52;0.93;;;;;;;0.12;100.00;101101.69;10436438;28;20299;-79
2022/11/21 02:36:51;;;;;;;0.50;0.50;;;;;;;0.19;100.00;101101.38;10443496;28;20052;-78
2022/11/21 02:42:11;;;;;;;0.13;0.13;;;;;;;0.28;100.00;101096.94;10438311;28;20052;-78
2022/11/21 02:47:13;;;;;;;0.50;0.50;;;;;;;0.14;100.00;101102.69;10438262;28;20037;-78
2022/11/21 02:52:14;;;;;;;0.32;0.20;;;;;;;0.31;100.00;101117.47;10437593;28;20036;-78
2022/11/21 02:57:16;;;;;;;0.30;0.30;;;;;;;0.21;100.00;101091.34;10421853;28;20100;-78
2022/11/21 03:02:17;;;;;;;1.63;0.68;;;;;;;0.07;100.00;101100.50;10454802;28;20070;-78
2022/11/21 03:07:19;;;;;;;0.93;0.90;;;;;;;0.12;100.00;101094.09;10433996;28;20049;-78
2022/11/21 03:12:21;;;;;;;0.43;0.43;;;;;;;0.11;100.00;101107.56;10426672;28;20091;-78
2022/11/21 03:17:23;;;;;;;0.00;0.00;;;;;;;0.04;100.00;101087.63;10420373;28;20053;-78
2022/11/21 03:22:27;;;;;;;0.65;0.65;;;;;;;-0.04;100.00;101082.00;10449364;28;20049;-78
2022/11/21 03:27:28;;;;;;;0.10;0.10;;;;;;;-0.08;100.00;101091.03;10436773;28;20103;-78
2022/11/21 03:32:30;;;;;;;0.05;0.05;;;;;;;-0.27;100.00;101073.63;10435960;28;20037;-79
2022/11/21 03:37:32;;;;;;;0.63;0.43;;;;;;;-0.24;100.00;101057.78;10422746;28;20041;-78
2022/11/21 03:42:33;;;;;;;0.20;0.20;;;;;;;-0.25;100.00;101045.88;10454151;28;20095;-78
2022/11/21 03:47:35;;;;;;;0.28;0.25;;;;;;;-0.28;100.00;101055.81;10453632;28;20071;-78
2022/11/21 03:52:39;;;;;;;0.32;0.32;;;;;;;-0.80;100.00;101043.66;10435949;28;20538;-79
2022/11/21 03:57:41;;;;;;;0.22;0.22;;;;;;;-0.83;100.00;101043.41;10453569;28;20037;-78
2022/11/21 04:02:42;;;;;;;0.05;0.05;;;;;;;-0.87;100.00;101028.78;10418452;28;20561;-78
2022/11/21 04:07:44;;;;;;;0.25;0.25;;;;;;;-0.84;100.00;101029.88;10435426;28;20319;-78
2022/11/21 04:12:46;;;;;;;1.80;1.15;;;;;;;-0.84;100.00;101023.94;10420764;28;20154;-77
2022/11/21 04:17:48;;;;;;;0.65;0.65;;;;;;;-0.84;100.00;101018.88;10422646;28;20124;-77
2022/11/21 04:22:50;;;;;;;0.20;0.20;;;;;;;-0.87;100.00;101032.19;10434551;28;20048;-77
2022/11/21 04:27:55;;;;;;;0.38;0.25;;;;;;;-0.66;100.00;101032.00;10435160;28;20079;-78
2022/11/21 04:32:57;;;;;;;0.00;0.00;;;;;;;-0.63;100.00;101042.34;10434801;28;20034;-78
2022/11/21 04:37:58;;;;;;;0.35;0.35;;;;;;;-0.54;100.00;101052.25;10461467;28;20045;-77
2022/11/21 04:43:00;;;;;;;0.88;0.88;;;;;;;-0.54;100.00;101042.13;10443052;28;20045;-78
2022/11/21 04:48:02;;;;;;;1.13;0.75;;;;;;;-0.56;100.00;101038.63;10461028;28;20053;-77
2022/11/21 04:53:03;;;;;;;0.15;0.15;;;;;;;-0.51;100.00;101067.69;10463628;28;20045;-79
2022/11/21 04:58:05;;;;;;;0.82;0.73;;;;;;;-0.62;100.00;101041.59;10461110;28;20049;-78
2022/11/21 05:03:07;;;;;;;4.38;1.20;;;;;;;-0.53;100.00;101048.97;10425714;28;20090;-77
2022/11/21 05:08:08;;;;;;;1.42;1.15;;;;;;;-0.50;100.00;101037.41;10458199;28;20523;-78
2022/11/21 05:13:22;;;;;;;0.75;0.55;;;;;;;-0.54;100.00;101039.59;10455369;28;20065;-77
2022/11/21 05:18:24;;;;;;;0.60;0.55;;;;;;;-0.65;100.00;101049.84;10441521;28;20049;-77
2022/11/21 05:23:25;;;;;;;6.88;2.00;;;;;;;-0.77;100.00;101033.72;10427705;28;20583;-77
2022/11/21 05:28:27;;;;;;;0.60;0.60;;;;;;;-0.85;100.00;101034.81;10440695;28;20049;-77
2022/11/21 05:33:28;;;;;;;0.80;0.75;;;;;;;-0.86;100.00;101033.09;10458535;28;20048;-77
2022/11/21 05:38:30;;;;;;;0.17;0.17;;;;;;;-0.92;100.00;101027.53;10454298;28;20045;-77
2022/11/21 05:43:47;;;;;;;2.03;1.10;;;;;;;-0.84;100.00;101021.41;10448785;28;20048;-77
2022/11/21 05:48:50;;;;;;;0.00;0.00;;;;;;;-0.83;100.00;101020.63;10439150;28;20580;-78
2022/11/21 05:53:52;;;;;;;1.45;0.80;;;;;;;-0.69;100.00;101012.41;10440341;28;20037;-77
2022/11/21 05:58:54;;;;;;;1.60;1.23;;;;;;;-0.78;100.00;101019.31;10456602;28;20091;-77
2022/11/21 06:03:56;;;;;;;0.85;0.85;;;;;;;-0.72;100.00;101004.63;10457975;28;20053;-78
2022/11/21 06:08:57;;;;;;;0.13;0.13;;;;;;;-0.69;100.00;101020.00;10439381;28;20041;-77
2022/11/21 06:13:59;;;;;;;0.20;0.20;;;;;;;-0.61;100.00;101019.69;10457628;28;20045;-77
2022/11/21 06:19:00;;;;;;;1.40;1.00;;;;;;;-0.57;100.00;101019.16;10425434;28;20041;-77
2022/11/21 06:24:04;;;;;;;0.20;0.20;;;;;;;-0.57;100.00;101027.59;10425647;28;20136;-78
2022/11/21 06:29:10;;;;;;;0.28;0.28;;;;;;;-0.45;100.00;101006.50;10454959;28;20052;-77
2022/11/21 06:34:12;;;;;;;0.10;0.10;;;;;;;-0.48;100.00;101007.13;10438444;28;20378;-78
2022/11/21 06:39:14;;;;;;;0.20;0.20;;;;;;;-0.35;100.00;101027.53;10458177;28;20040;-79
2022/11/21 06:44:17;;;;;;;1.17;1.05;;;;;;;-0.32;100.00;101015.06;10438334;28;20041;-78
2022/11/21 06:49:18;;;;;;;0.13;0.13;;;;;;;-0.20;100.00;101006.59;10455085;28;20037;-78
2022/11/21 06:54:20;;;;;;;0.43;0.43;;;;;;;-0.25;100.00;101006.25;10438156;28;20040;-78
2022/11/21 06:59:22;;;;;;;0.90;0.57;;;;;;;-0.15;100.00;101023.00;10453563;28;20048;-77
2022/11/21 07:04:24;;;;;;;1.15;1.08;;;;;;;-0.25;100.00;101025.63;10437513;28;20052;-78
2022/11/21 07:09:26;;;;;;;0.22;0.22;;;;;;;-0.19;100.00;101033.69;10453773;28;20049;-78
2022/11/21 07:14:34;;;;;;;0.85;0.85;;;;;;;-0.17;100.00;101039.72;10437849;28;20069;-78
2022/11/21 07:19:36;;;;;;;0.13;0.13;;;;;;;-0.05;100.00;101049.84;10436491;28;20079;-78
2022/11/21 07:24:41;;;;;;;4.85;1.85;;;;;;;0.09;100.00;101038.16;10454237;28;20492;-78
2022/11/21 07:29:43;;;;;;;0.25;0.08;;;;;;;-0.01;100.00;101032.44;10433665;28;20048;-79
2022/11/21 07:34:45;;;;;;;0.75;0.75;;;;;;;0.08;100.00;101036.41;10452962;28;20352;-78
2022/11/21 07:39:46;;;;;;;0.52;0.52;;;;;;;0.14;100.00;101032.66;10417533;28;20053;-78
2022/11/21 07:44:48;;;;;;;0.63;0.63;;;;;;;0.25;100.00;101035.03;10438826;28;20049;-79
2022/11/21 07:49:50;;;;;;;1.63;1.52;;;;;;;0.26;100.00;101031.72;10435232;28;20451;-79
2022/11/21 07:54:52;;;;;;;2.40;1.92;;;;;;;0.30;100.00;101027.00;10435870;28;20041;-78
2022/11/21 07:59:54;;;;;;;2.65;0.80;;;;;;;0.35;100.00;101034.00;10431311;28;20037;-79
2022/11/21 08:04:55;;;;;;;0.30;0.30;;;;;;;0.39;100.00;101019.13;10408917;28;20056;-78
2022/11/21 08:09:58;;;;;;;0.20;0.20;;;;;;;0.55;100.00;101010.94;10441372;28;20056;-79
2022/11/21 08:14:59;;;;;;;0.10;0.10;;;;;;;0.51;100.00;101005.56;10434787;28;20044;-79
2022/11/21 08:20:01;;;;;;;0.10;0.10;;;;;;;0.40;100.00;101007.34;10424236;28;20554;-78
2022/11/21 08:25:03;;;;;;;0.20;0.20;;;;;;;0.45;100.00;101011.94;10451866;28;20042;-79
2022/11/21 08:30:07;;;;;;;0.25;0.25;;;;;;;0.48;100.00;101003.69;10396340;28;20075;-79
2022/11/21 08:35:09;;;;;;;0.00;0.00;;;;;;;0.54;100.00;101006.63;10432654;28;20037;-78
2022/11/21 08:40:11;;;;;;;1.17;1.00;;;;;;;0.55;100.00;100984.69;10435918;28;20343;-79
2022/11/21 08:45:12;;;;;;;1.05;0.95;;;;;;;0.61;100.00;100980.03;10440972;28;20053;-79
2022/11/21 08:50:14;;;;;;;1.25;1.15;;;;;;;0.81;100.00;100986.44;10419135;28;20061;-79
2022/11/21 08:55:15;;;;;;;1.42;1.10;;;;;;;0.68;100.00;100986.41;10425513;28;20053;-79
2022/11/21 09:00:17;;;;;;;0.75;0.75;;;;;;;0.88;100.00;100996.22;10426805;28;20053;-79
2022/11/21 09:05:19;;;;;;;0.52;0.52;;;;;;;0.84;100.00;100984.13;10425723;28;20153;-79
2022/11/21 09:10:21;;;;;;;2.55;1.60;;;;;;;1.00;100.00;100975.84;10427058;28;20053;-79
2022/11/21 09:20:43;;;;;;;4.13;1.35;;;;;;;1.03;100.00;100980.25;10423818;28;20072;-79
2022/11/21 09:25:45;;;;;;;0.77;0.77;;;;;;;1.06;100.00;100970.31;10441480;28;20469;-80
2022/11/21 09:30:47;;;;;;;0.20;0.20;;;;;;;1.21;100.00;100973.84;10439170;28;20045;-79
2022/11/21 09:35:49;;;;;;;0.03;0.03;;;;;;;1.26;100.00;100982.63;10454736;28;20041;-80
2022/11/21 09:40:51;;;;;;;0.77;0.77;;;;;;;1.27;100.00;100970.78;10426054;28;20052;-79
2022/11/21 09:46:00;;;;;;;0.90;0.65;;;;;;;1.47;100.00;100981.38;10445710;28;20041;-79
2022/11/21 09:51:09;;;;;;;2.00;1.80;;;;;;;1.49;100.00;100977.28;10439810;28;20171;-80
2022/11/21 09:56:15;;;;;;;3.17;1.48;;;;;;;1.62;100.00;100966.22;10457445;28;20343;-79
2022/11/21 10:01:16;;;;;;;1.73;1.08;;;;;;;1.87;100.00;100977.16;10462542;28;20106;-79
2022/11/21 10:06:20;;;;;;;2.55;1.88;;;;;;;1.76;100.00;100954.38;10465439;28;20476;-78
2022/11/21 10:11:33;;;;;;;1.85;1.23;;;;;;;2.05;100.00;100946.00;10455444;28;20041;-79
2022/11/21 10:16:50;;;;;;;2.60;1.80;;;;;;;2.12;100.00;100932.91;10457083;28;20103;-79
2022/11/21 10:22:15;;;;;;;0.50;0.50;;;;;;;2.10;100.00;100929.41;10439590;28;20041;-80
2022/11/21 10:27:36;;;;;;;1.17;0.98;;;;;;;2.43;100.00;100933.84;10437135;28;20040;-79
2022/11/21 10:32:43;;;;;;;2.22;1.48;;;;;;;2.32;100.00;100935.78;10449450;28;20476;-80
2022/11/21 10:37:50;;;;;;;1.27;0.95;;;;;;;2.42;100.00;100917.72;10456152;28;20103;-79
2022/11/21 10:42:57;;;;;;;0.10;0.10;;;;;;;2.24;100.00;100907.31;10455064;28;20052;-79
2022/11/21 10:47:59;;;;;;;0.30;0.30;;;;;;;2.38;100.00;100910.69;10458963;28;20041;-80
2022/11/21 10:58:46;;;;;;;0.57;0.57;;;;;;;2.58;100.00;100908.44;10444151;28;20106;-80
2022/11/21 11:04:08;;;;;;;2.35;1.42;;;;;;;2.76;100.00;100893.34;10452604;28;20449;-80
2022/11/21 11:09:32;;;;;;;0.75;0.75;;;;;;;2.79;100.00;100879.13;10429166;28;20053;-79
2022/11/21 11:14:34;;;;;;;5.88;1.50;;;;;;;2.90;100.00;100876.34;10435945;28;20072;-79
2022/11/21 11:19:36;;;;;;;3.90;1.95;;;;;;;3.13;100.00;100873.41;10451085;28;20049;-79
2022/11/21 11:24:51;;;;;;;8.20;2.47;;;;;;;3.10;100.00;100880.88;10452966;28;20044;-80
2022/11/21 11:30:05;;;;;;;1.83;1.33;;;;;;;3.31;100.00;100877.78;10448772;28;20045;-79
2022/11/21 11:35:18;;;;;;;7.97;1.98;;;;;;;3.37;100.00;100874.69;10446092;28;20052;-79
2022/11/21 11:40:40;;;;;;;0.75;0.65;;;;;;;3.36;100.00;100868.72;10440054;28;20294;-79
2022/11/21 11:51:33;;;;;;;3.75;1.35;;;;;;;3.45;100.00;100843.75;10449773;28;20049;-80
2022/11/21 11:56:37;;;;;;;2.92;1.67;;;;;;;3.48;100.00;100836.25;10426381;28;20075;-81
2022/11/21 12:01:51;;;;;;;8.13;1.33;;;;;;;3.73;100.00;100835.03;10437355;28;20340;-80
2022/11/21 12:06:59;;;;;;;1.75;1.35;;;;;;;3.73;100.00;100818.84;10452356;28;20049;-80
2022/11/21 12:12:44;;;;;;;3.95;2.55;;;;;;;3.80;100.00;100815.81;10451372;28;20381;-80
2022/11/21 12:18:04;;;;;;;4.25;2.78;;;;;;;3.95;100.00;100800.44;10434562;28;20045;-80
2022/11/21 12:23:09;;;;;;;2.20;1.33;;;;;;;3.95;100.00;100805.53;10434672;28;20404;-80
2022/11/21 12:28:40;;;;;;;20.42;3.22;;;;;;;4.05;100.00;100800.13;10434516;28;20047;-80
2022/11/21 12:33:57;;;;;;;5.43;3.60;;;;;;;4.19;100.00;100779.53;10424739;28;20056;-80
2022/11/21 12:39:38;;;;;;;2.08;1.17;;;;;;;4.29;100.00;100776.63;10433909;28;20068;-80
2022/11/21 12:45:13;;;;;;;2.20;1.40;;;;;;;4.38;100.00;100772.00;10420293;28;20075;-81
2022/11/21 12:55:43;;;;;;;0.93;0.85;;;;;;;4.44;100.00;100751.88;10436885;28;20072;-79
2022/11/21 13:01:04;;;;;;;2.65;1.55;;;;;;;4.63;100.00;100737.47;10442164;28;20408;-79
2022/11/21 13:06:14;;;;;;;1.83;1.70;;;;;;;4.81;100.00;100734.00;10439393;28;20163;-80
2022/11/21 13:17:38;;;;;;;3.40;1.30;;;;;;;5.19;100.00;100734.88;10422694;28;20496;-80
2022/11/21 13:22:40;;;;;;;3.08;1.08;;;;;;;5.03;100.00;100726.53;10445859;28;20068;-80
2022/11/21 13:27:42;;;;;;;3.22;1.88;;;;;;;4.86;100.00;100712.13;10443974;28;20106;-80
2022/11/21 13:32:54;;;;;;;3.25;1.17;;;;;;;4.81;100.00;100703.38;10459520;28;20033;-80
2022/11/21 13:38:04;;;;;;;0.73;0.73;;;;;;;4.78;100.00;100696.44;10452787;28;20041;-80
2022/11/21 13:43:09;;;;;;;;;;;;;;;4.78;100.00;100685.38;10427189;28;20071;-80
2022/11/21 13:48:56;;;;;;;2.25;1.67;;;;;;;4.82;100.00;100672.84;10449209;28;20047;-80
2022/11/21 13:54:33;;;;;;;1.17;1.02;;;;;;;4.84;100.00;100660.13;10439526;28;20033;-80
2022/11/21 13:59:41;;;;;;;3.70;1.73;;;;;;;4.71;100.00;100639.16;10406279;28;20053;-80
2022/11/21 14:04:49;;;;;;;3.05;2.30;;;;;;;4.73;100.00;100631.56;10426144;28;20041;-81
2022/11/21 14:09:53;;;;;;;1.60;1.50;;;;;;;4.84;100.00;100624.41;10437305;28;20162;-80
2022/11/21 14:15:00;;;;;;;2.85;1.33;;;;;;;4.81;100.00;100614.03;10423670;28;20040;-80
2022/11/21 14:20:47;;;;;;;4.63;1.80;;;;;;;4.69;100.00;100604.19;10456026;28;20049;-80
2022/11/21 14:25:52;;;;;;;2.92;1.42;;;;;;;4.65;100.00;100592.06;10452440;28;20507;-80
2022/11/21 14:31:03;;;;;;;1.75;1.65;;;;;;;4.61;100.00;100578.31;10438673;28;20488;-80
2022/11/21 14:36:11;;;;;;;1.90;1.70;;;;;;;4.51;100.00;100563.38;10430290;28;20485;-80
2022/11/21 14:41:22;;;;;;;1.05;0.77;;;;;;;4.35;100.00;100552.50;10441319;28;20136;-80
2022/11/21 14:46:34;;;;;;;6.00;2.83;;;;;;;4.24;100.00;100533.28;10456017;28;20049;-79
2022/11/21 14:51:36;;;;;;;0.98;0.95;;;;;;;4.20;100.00;100521.19;10453622;28;20451;-79
2022/11/21 14:56:39;;;;;;;9.02;0.98;;;;;;;4.11;100.00;100504.69;10437400;28;20049;-79
2022/11/21 15:01:54;;;;;;;4.28;2.17;;;;;;;4.07;100.00;100490.03;10454182;28;20094;-80
2022/11/21 15:06:56;;;;;;;2.40;1.23;;;;;;;4.04;100.00;100479.72;10432335;28;20383;-80
2022/11/21 15:12:04;;;;;;;7.53;2.97;;;;;;;4.08;100.00;100468.84;10435757;28;20107;-79
2022/11/21 15:17:11;;;;;;;2.85;1.77;;;;;;;4.03;100.00;100472.84;10453637;28;20045;-79
2022/11/21 15:22:32;;;;;;;1.95;1.17;;;;;;;3.91;100.00;100462.13;10462145;28;20048;-80
2022/11/21 15:27:35;;;;;;;1.90;1.40;;;;;;;3.87;100.00;100450.03;10448585;28;20053;-80
2022/11/21 15:33:02;;;;;;;0.70;0.70;;;;;;;3.88;100.00;100441.56;10452374;28;20037;-79
2022/11/21 15:38:36;;;;;;;1.45;1.25;;;;;;;3.86;100.00;100430.44;10418846;28;20056;-79
2022/11/21 15:43:50;;;;;;;1.98;1.58;;;;;;;3.84;100.00;100424.38;10442557;28;20049;-80
2022/11/21 15:48:54;;;;;;;1.15;1.05;;;;;;;3.87;100.00;100406.69;10435259;28;20467;-80
2022/11/21 15:53:56;;;;;;;2.15;1.95;;;;;;;3.86;100.00;100400.75;10434486;28;20048;-79
2022/11/21 15:58:59;;;;;;;4.95;4.25;;;;;;;3.84;100.00;100397.25;10433251;28;20041;-80
2022/11/21 16:04:03;;;;;;;1.55;1.10;;;;;;;3.81;100.00;100390.34;10461747;28;20059;-80
2022/11/21 16:09:07;;;;;;;2.20;0.82;;;;;;;3.78;100.00;100379.13;10418298;28;20140;-80
2022/11/21 16:14:14;;;;;;;2.40;1.45;;;;;;;3.71;100.00;100362.69;10412220;28;20405;-79
2022/11/21 16:19:16;;;;;;;3.40;2.45;;;;;;;3.70;100.00;100363.47;10405411;28;20469;-79
2022/11/21 16:24:17;;;;;;;2.33;1.00;;;;;;;3.70;100.00;100365.16;10434729;28;20132;-80
2022/11/21 16:29:21;;;;;;;7.93;1.25;;;;;;;3.66;100.00;100369.25;10407089;28;20053;-80
2022/11/21 16:34:22;;;;;;;0.95;0.52;;;;;;;3.61;100.00;100360.53;10455610;28;20060;-80
2022/11/21 16:39:24;;;;;;;5.53;1.63;;;;;;;3.62;100.00;100352.97;10417249;28;20048;-80
2022/11/21 16:44:29;;;;;;;0.65;0.50;;;;;;;3.58;100.00;100334.91;10450506;28;20073;-79
2022/11/21 16:49:31;;;;;;;4.15;1.90;;;;;;;3.59;100.00;100316.28;10432931;28;20048;-80
2022/11/21 16:54:33;;;;;;;1.08;0.95;;;;;;;3.63;100.00;100313.06;10417359;28;20048;-79
2022/11/21 16:59:34;;;;;;;1.65;1.23;;;;;;;3.67;100.00;100309.88;10432170;28;20045;-81
2022/11/21 17:04:36;;;;;;;1.20;0.63;;;;;;;3.71;100.00;100321.06;10447060;28;20045;-80
2022/11/21 17:09:38;;;;;;;1.67;0.95;;;;;;;3.74;100.00;100309.34;10441761;28;20456;-80
2022/11/21 17:14:40;;;;;;;0.65;0.52;;;;;;;3.77;100.00;100301.81;10443565;28;20565;-79
2022/11/21 17:19:41;;;;;;;0.60;0.60;;;;;;;3.80;100.00;100301.94;10451350;28;20091;-80
2022/11/21 17:24:43;;;;;;;1.10;1.00;;;;;;;3.81;100.00;100306.25;10433192;28;20041;-80
2022/11/21 17:29:45;;;;;;;1.92;1.75;;;;;;;3.89;100.00;100314.22;10450975;28;20044;-81
2022/11/21 17:34:46;;;;;;;1.38;1.27;;;;;;;3.93;100.00;100299.91;10451433;28;20092;-80
2022/11/21 17:39:48;;;;;;;0.65;0.60;;;;;;;3.97;100.00;100294.16;10432904;28;20049;-80
2022/11/21 17:44:50;;;;;;;2.20;0.77;;;;;;;3.96;100.00;100284.78;10423334;28;20102;-80
2022/11/21 17:49:51;;;;;;;1.10;1.00;;;;;;;3.99;100.00;100267.03;10458700;28;20392;-80
2022/11/21 17:54:53;;;;;;;2.95;1.50;;;;;;;3.99;100.00;100246.66;10454214;28;20094;-79
2022/11/21 17:59:55;;;;;;;0.55;0.55;;;;;;;4.01;100.00;100244.19;10452308;28;20048;-79
2022/11/21 18:04:56;;;;;;;2.13;1.60;;;;;;;4.05;100.00;100231.63;10455889;28;20382;-80
2022/11/21 18:09:58;;;;;;;1.17;0.75;;;;;;;4.09;100.00;100233.50;10434374;28;20049;-80
2022/11/21 18:15:20;;;;;;;3.03;1.88;;;;;;;4.13;100.00;100225.16;10444533;28;20041;-80
2022/11/21 18:20:22;;;;;;;2.83;1.45;;;;;;;4.17;100.00;100220.19;10444272;28;20149;-80
2022/11/21 18:25:24;;;;;;;0.50;0.50;;;;;;;4.17;100.00;100220.19;10447535;28;20481;-80
2022/11/21 18:30:27;;;;;;;3.20;1.70;;;;;;;4.20;100.00;100222.88;10440035;28;20036;-80
2022/11/21 18:35:29;;;;;;;0.95;0.90;;;;;;;4.19;100.00;100223.69;10416278;28;20552;-80
2022/11/21 18:40:30;;;;;;;2.22;1.48;;;;;;;4.20;100.00;100225.44;10441787;28;20049;-81
2022/11/21 18:45:32;;;;;;;2.90;2.70;;;;;;;4.26;100.00;100230.78;10433555;28;20075;-80
2022/11/21 18:50:34;;;;;;;3.58;1.55;;;;;;;4.24;100.00;100217.97;10443444;28;20045;-81
2022/11/21 18:55:38;;;;;;;2.75;0.75;;;;;;;4.24;100.00;100201.78;10421327;28;20040;-80
2022/11/21 19:00:39;;;;;;;1.85;1.08;;;;;;;4.22;100.00;100168.59;10454715;28;20098;-80
2022/11/21 19:05:41;;;;;;;3.10;1.65;;;;;;;4.20;100.00;100148.94;10446722;28;20036;-79
2022/11/21 19:10:43;;;;;;;0.30;0.25;;;;;;;4.21;100.00;100155.75;10434034;28;20045;-79
2022/11/21 19:15:45;;;;;;;0.40;0.40;;;;;;;4.15;100.00;100140.22;10428793;28;20037;-79
2022/11/21 19:20:47;;;;;;;0.95;0.85;;;;;;;4.17;100.00;100138.59;10427751;28;20045;-79
2022/11/21 19:25:48;;;;;;;0.55;0.55;;;;;;;4.16;100.00;100136.84;10426407;28;20119;-80
2022/11/21 19:30:50;;;;;;;0.15;0.15;;;;;;;4.17;100.00;100125.84;10440275;28;20083;-80
2022/11/21 19:35:52;;;;;;;1.92;0.90;;;;;;;4.18;100.00;100109.75;10443756;28;20056;-79
2022/11/21 19:41:17;;;;;;;0.50;0.10;;;;;;;4.18;100.00;100112.31;10440710;28;20516;-80
2022/11/21 19:46:24;;;;;;;1.23;0.75;;;;;;;4.23;100.00;100108.25;10445093;28;20041;-80
2022/11/21 19:51:28;;;;;;;0.20;0.20;;;;;;;4.31;100.00;100099.22;10434266;28;20562;-80
2022/11/21 19:56:30;;;;;;;1.30;0.75;;;;;;;4.36;100.00;100105.34;10450470;28;20057;-80
2022/11/21 20:01:33;;;;;;;0.85;0.65;;;;;;;4.38;100.00;100088.44;10452065;28;20037;-80
2022/11/21 20:06:41;;;;;;;0.10;0.10;;;;;;;4.38;100.00;100080.78;10450427;28;20044;-80
2022/11/21 20:11:45;;;;;;;3.83;2.03;;;;;;;4.40;100.00;100071.50;10450761;28;20083;-80
2022/11/21 20:16:48;;;;;;;1.00;0.77;;;;;;;4.37;100.00;100057.78;10433275;28;20037;-80
2022/11/21 20:21:50;;;;;;;0.30;0.30;;;;;;;4.33;100.00;100036.41;10416373;28;20518;-80
2022/11/21 20:26:52;;;;;;;0.28;0.28;;;;;;;4.35;100.00;100022.03;10417608;28;20049;-80
2022/11/21 20:31:57;;;;;;;0.75;0.57;;;;;;;4.33;100.00;99998.16;10455929;28;20045;-80
2022/11/21 20:36:59;;;;;;;0.47;0.45;;;;;;;4.36;100.00;99970.19;10454277;28;20096;-80
2022/11/21 20:42:01;;;;;;;0.15;0.15;;;;;;;4.29;100.00;99945.28;10433765;28;20057;-80
2022/11/21 20:47:05;;;;;;;0.57;0.40;;;;;;;4.24;100.00;99898.34;10456801;28;20087;-79
2022/11/21 20:52:07;;;;;;;0.90;0.47;;;;;;;4.21;100.00;99885.50;10424079;28;20175;-79
2022/11/21 20:57:29;;;;;;;0.00;0.00;;;;;;;4.30;100.00;99873.06;10424853;28;20072;-80
2022/11/21 21:02:30;;;;;;;0.10;0.10;;;;;;;4.31;100.00;99866.31;10433592;28;20053;-80
2022/11/21 21:07:32;;;;;;;1.20;1.05;;;;;;;4.35;100.00;99853.72;10418027;28;20431;-80
2022/11/21 21:12:34;;;;;;;0.98;0.93;;;;;;;4.36;100.00;99849.47;10432784;28;20049;-80
2022/11/21 21:17:36;;;;;;;0.45;0.45;;;;;;;4.34;100.00;99840.91;10437753;28;20045;-80
2022/11/21 21:22:38;;;;;;;0.30;0.30;;;;;;;4.40;100.00;99839.44;10455439;28;20053;-80
2022/11/21 21:27:41;;;;;;;3.75;1.15;;;;;;;4.45;100.00;99826.84;10458011;28;20484;-80
2022/11/21 21:32:45;;;;;;;0.43;0.30;;;;;;;4.45;100.00;99819.19;10435295;28;20140;-80
2022/11/21 21:37:47;;;;;;;0.88;0.82;;;;;;;4.54;100.00;99813.50;10458782;28;20045;-80
2022/11/21 21:42:51;;;;;;;0.10;0.10;;;;;;;4.54;100.00;99808.41;10440346;28;20107;-80
2022/11/21 21:47:53;;;;;;;0.25;0.25;;;;;;;4.50;100.00;99802.34;10440663;28;20145;-79
2022/11/21 21:52:55;;;;;;;0.63;0.60;;;;;;;4.54;100.00;99793.09;10445308;28;20564;-80
2022/11/21 21:57:56;;;;;;;0.55;0.50;;;;;;;4.44;100.00;99780.03;10440651;28;20554;-80
2022/11/21 22:03:00;;;;;;;0.35;0.10;;;;;;;4.43;100.00;99775.75;10453079;28;20488;-80
2022/11/21 22:08:02;;;;;;;0.65;0.65;;;;;;;4.43;100.00;99775.75;10440321;28;20044;-80
2022/11/21 22:13:03;;;;;;;0.28;0.28;;;;;;;4.39;100.00;99758.63;10439058;28;20067;-80
2022/11/21 22:18:05;;;;;;;0.00;0.00;;;;;;;4.41;100.00;99753.56;10439771;28;20049;-80
2022/11/21 22:23:06;;;;;;;0.40;0.40;;;;;;;4.38;100.00;99751.78;10431634;28;20044;-80
2022/11/21 22:28:08;;;;;;;0.82;0.77;;;;;;;4.37;100.00;99744.97;10438608;28;20056;-80
2022/11/21 22:33:10;;;;;;;0.65;0.60;;;;;;;4.44;100.00;99731.59;10476195;28;20102;-80
2022/11/21 22:38:13;;;;;;;0.00;0.00;;;;;;;4.49;100.00;99723.22;10428475;28;20049;-79
2022/11/21 22:43:14;;;;;;;0.05;0.05;;;;;;;4.47;100.00;99720.59;10421778;28;20515;-79
2022/11/21 22:48:16;;;;;;;1.65;0.70;;;;;;;4.47;100.00;99718.06;10422149;28;20102;-78
2022/11/21 22:53:17;;;;;;;0.13;0.13;;;;;;;4.44;100.00;99716.28;10437274;28;20075;-81
2022/11/21 22:58:19;;;;;;;0.35;0.35;;;;;;;4.43;100.00;99714.53;10434691;28;20586;-80
2022/11/21 23:03:21;;;;;;;0.38;0.38;;;;;;;4.41;100.00;99716.22;10422233;28;20049;-80
2022/11/21 23:08:22;;;;;;;0.38;0.38;;;;;;;4.38;100.00;99711.00;10437940;28;20628;-81
2022/11/21 23:13:24;;;;;;;0.05;0.05;;;;;;;4.36;100.00;99709.22;10429138;28;20056;-81
2022/11/21 23:18:26;;;;;;;0.10;0.10;;;;;;;4.32;100.00;99709.94;10436995;28;20454;-80
2022/11/21 23:23:28;;;;;;;1.55;0.95;;;;;;;4.26;100.00;99708.91;10454930;28;20459;-80
2022/11/21 23:28:30;;;;;;;0.40;0.40;;;;;;;4.18;100.00;99702.69;10437331;28;20127;-81
2022/11/21 23:33:31;;;;;;;0.75;0.45;;;;;;;4.11;100.00;99705.88;10454245;28;20052;-81
2022/11/21 23:38:33;;;;;;;0.57;0.43;;;;;;;4.09;100.00;99703.28;10436303;28;20077;-80
2022/11/21 23:43:35;;;;;;;0.60;0.52;;;;;;;4.12;100.00;99703.41;10454041;28;20043;-81
2022/11/21 23:48:37;;;;;;;0.20;0.20;;;;;;;4.15;100.00;99706.84;10453972;28;20041;-81